sensor_id;sensor_type;location;lat;lon;timestamp;pressure;altitude;pressure_sealevel;temperature;humidity
81628;BME280;71036;51.102;6.514;2024-01-30T00:00:31;102006.69;;;8.25;100.00
81628;BME280;71036;51.102;6.514;2024-01-30T00:02:56;102011.28;;;8.23;100.00
81628;BME280;71036;51.102;6.514;2024-01-30T00:05:22;102010.41;;;8.23;100.00
81628;BME280;71036;51.102;6.514;2024-01-30T00:07:47;102002.50;;;8.20;100.00
81628;BME280;71036;51.102;6.514;2024-01-30T00:10:12;102009.78;;;8.16;100.00
81628;BME280;71036;51.102;6.514;2024-01-30T00:12:38;102013.50;;;8.14;100.00
81628;BME280;71036;51.102;6.514;2024-01-30T00:15:03;102012.06;;;8.07;100.00
81628;BME280;71036;51.102;6.514;2024-01-30T00:17:30;102003.78;;;8.11;100.00
81628;BME280;71036;51.102;6.514;2024-01-30T00:19:55;102002.50;;;8.20;100.00
81628;BME280;71036;51.102;6.514;2024-01-30T00:22:21;102001.56;;;8.21;100.00
81628;BME280;71036;51.102;6.514;2024-01-30T00:24:46;101998.09;;;8.19;100.00
81628;BME280;71036;51.102;6.514;2024-01-30T00:27:11;102003.09;;;8.26;100.00
81628;BME280;71036;51.102;6.514;2024-01-30T00:29:36;102006.06;;;8.20;100.00
81628;BME280;71036;51.102;6.514;2024-01-30T00:32:02;101995.56;;;8.16;100.00
81628;BME280;71036;51.102;6.514;2024-01-30T00:34:27;101996.69;;;8.10;100.00
81628;BME280;71036;51.102;6.514;2024-01-30T00:36:52;101996.63;;;8.12;100.00
81628;BME280;71036;51.102;6.514;2024-01-30T00:39:18;101995.25;;;8.03;100.00
81628;BME280;71036;51.102;6.514;2024-01-30T00:41:44;101993.34;;;8.05;100.00
81628;BME280;71036;51.102;6.514;2024-01-30T00:44:10;101995.16;;;8.05;100.00
81628;BME280;71036;51.102;6.514;2024-01-30T00:46:35;101995.84;;;8.10;100.00
81628;BME280;71036;51.102;6.514;2024-01-30T00:49:00;101989.78;;;8.05;100.00
81628;BME280;71036;51.102;6.514;2024-01-30T00:51:26;101990.81;;;8.02;100.00
81628;BME280;71036;51.102;6.514;2024-01-30T00:53:51;101995.44;;;7.99;100.00
81628;BME280;71036;51.102;6.514;2024-01-30T00:56:16;101995.69;;;7.93;100.00
81628;BME280;71036;51.102;6.514;2024-01-30T00:58:46;102000.53;;;7.84;100.00
81628;BME280;71036;51.102;6.514;2024-01-30T01:01:11;101998.97;;;7.80;100.00
81628;BME280;71036;51.102;6.514;2024-01-30T01:03:37;101996.56;;;7.74;100.00
81628;BME280;71036;51.102;6.514;2024-01-30T01:06:02;101995.81;;;7.71;100.00
81628;BME280;71036;51.102;6.514;2024-01-30T01:08:28;101993.44;;;7.63;100.00
81628;BME280;71036;51.102;6.514;2024-01-30T01:10:53;101996.94;;;7.65;100.00
81628;BME280;71036;51.102;6.514;2024-01-30T01:13:18;101994.94;;;7.70;100.00
81628;BME280;71036;51.102;6.514;2024-01-30T01:15:44;101994.78;;;7.73;100.00
81628;BME280;71036;51.102;6.514;2024-01-30T01:18:09;101994.53;;;7.79;100.00
81628;BME280;71036;51.102;6.514;2024-01-30T01:20:34;101998.13;;;7.78;100.00
81628;BME280;71036;51.102;6.514;2024-01-30T01:22:59;101993.03;;;7.72;100.00
81628;BME280;71036;51.102;6.514;2024-01-30T01:25:25;101994.28;;;7.65;100.00
81628;BME280;71036;51.102;6.514;2024-01-30T01:27:50;101989.66;;;7.69;100.00
81628;BME280;71036;51.102;6.514;2024-01-30T01:30:18;102000.16;;;7.73;100.00
81628;BME280;71036;51.102;6.514;2024-01-30T01:32:49;102001.97;;;7.73;100.00
81628;BME280;71036;51.102;6.514;2024-01-30T01:35:24;102007.41;;;7.71;100.00
81628;BME280;71036;51.102;6.514;2024-01-30T01:37:51;101997.69;;;7.69;100.00
81628;BME280;71036;51.102;6.514;2024-01-30T01:40:25;102002.03;;;7.71;100.00
81628;BME280;71036;51.102;6.514;2024-01-30T01:42:51;101989.06;;;7.62;100.00
81628;BME280;71036;51.102;6.514;2024-01-30T01:45:18;101993.25;;;7.68;100.00
81628;BME280;71036;51.102;6.514;2024-01-30T01:47:43;101990.38;;;7.72;100.00
81628;BME280;71036;51.102;6.514;2024-01-30T01:50:12;101994.88;;;7.72;100.00
81628;BME280;71036;51.102;6.514;2024-01-30T01:52:39;101992.13;;;7.73;100.00
81628;BME280;71036;51.102;6.514;2024-01-30T01:55:05;101986.97;;;7.69;100.00
81628;BME280;71036;51.102;6.514;2024-01-30T01:57:31;101980.63;;;7.71;100.00
81628;BME280;71036;51.102;6.514;2024-01-30T01:59:56;101985.75;;;7.76;100.00
81628;BME280;71036;51.102;6.514;2024-01-30T02:02:23;101975.53;;;7.65;100.00
81628;BME280;71036;51.102;6.514;2024-01-30T02:04:49;101985.00;;;7.72;100.00
81628;BME280;71036;51.102;6.514;2024-01-30T02:07:15;101981.50;;;7.72;100.00
81628;BME280;71036;51.102;6.514;2024-01-30T02:09:40;101973.16;;;7.78;100.00
81628;BME280;71036;51.102;6.514;2024-01-30T02:14:45;101973.63;;;7.87;100.00
81628;BME280;71036;51.102;6.514;2024-01-30T02:17:11;101971.75;;;7.89;100.00
81628;BME280;71036;51.102;6.514;2024-01-30T02:19:37;101965.59;;;7.87;100.00
81628;BME280;71036;51.102;6.514;2024-01-30T02:22:02;101968.66;;;7.78;100.00
81628;BME280;71036;51.102;6.514;2024-01-30T02:24:28;101960.50;;;7.81;100.00
81628;BME280;71036;51.102;6.514;2024-01-30T02:26:53;101967.88;;;7.76;100.00
81628;BME280;71036;51.102;6.514;2024-01-30T02:29:18;101961.19;;;7.66;100.00
81628;BME280;71036;51.102;6.514;2024-01-30T02:31:43;101960.06;;;7.72;100.00
81628;BME280;71036;51.102;6.514;2024-01-30T02:34:11;101958.09;;;7.75;100.00
81628;BME280;71036;51.102;6.514;2024-01-30T02:36:36;101955.41;;;7.75;100.00
81628;BME280;71036;51.102;6.514;2024-01-30T02:39:02;101955.50;;;7.74;100.00
81628;BME280;71036;51.102;6.514;2024-01-30T02:41:27;101955.50;;;7.74;100.00
81628;BME280;71036;51.102;6.514;2024-01-30T02:43:53;101942.38;;;7.68;100.00
81628;BME280;71036;51.102;6.514;2024-01-30T02:46:18;101960.25;;;7.67;100.00
81628;BME280;71036;51.102;6.514;2024-01-30T02:48:43;101944.59;;;7.58;100.00
81628;BME280;71036;51.102;6.514;2024-01-30T02:51:08;101948.28;;;7.56;100.00
81628;BME280;71036;51.102;6.514;2024-01-30T02:53:34;101948.28;;;7.56;100.00
81628;BME280;71036;51.102;6.514;2024-01-30T02:55:59;101946.53;;;7.55;100.00
81628;BME280;71036;51.102;6.514;2024-01-30T02:58:24;101941.31;;;7.52;100.00
81628;BME280;71036;51.102;6.514;2024-01-30T03:00:49;101945.81;;;7.51;100.00
81628;BME280;71036;51.102;6.514;2024-01-30T03:03:15;101941.53;;;7.47;100.00
81628;BME280;71036;51.102;6.514;2024-01-30T03:05:40;101930.31;;;7.39;100.00
81628;BME280;71036;51.102;6.514;2024-01-30T03:08:05;101934.78;;;7.39;100.00
81628;BME280;71036;51.102;6.514;2024-01-30T03:10:31;101937.97;;;7.47;100.00
81628;BME280;71036;51.102;6.514;2024-01-30T03:12:56;101943.28;;;7.48;100.00
81628;BME280;71036;51.102;6.514;2024-01-30T03:15:21;101933.16;;;7.34;100.00
81628;BME280;71036;51.102;6.514;2024-01-30T03:17:46;101934.97;;;7.34;100.00
81628;BME280;71036;51.102;6.514;2024-01-30T03:20:12;101943.72;;;7.38;100.00
81628;BME280;71036;51.102;6.514;2024-01-30T03:22:37;101939.25;;;7.38;100.00
81628;BME280;71036;51.102;6.514;2024-01-30T03:25:02;101934.03;;;7.35;100.00
81628;BME280;71036;51.102;6.514;2024-01-30T03:27:28;101924.34;;;7.32;100.00
81628;BME280;71036;51.102;6.514;2024-01-30T03:29:54;101943.59;;;7.41;100.00
81628;BME280;71036;51.102;6.514;2024-01-30T03:32:19;101923.19;;;7.38;100.00
81628;BME280;71036;51.102;6.514;2024-01-30T03:34:44;101928.63;;;7.37;100.00
81628;BME280;71036;51.102;6.514;2024-01-30T03:37:09;101932.16;;;7.37;100.00
81628;BME280;71036;51.102;6.514;2024-01-30T03:39:35;101930.34;;;7.38;100.00
81628;BME280;71036;51.102;6.514;2024-01-30T03:42:01;101931.75;;;7.46;100.00
81628;BME280;71036;51.102;6.514;2024-01-30T03:44:27;101933.41;;;7.49;100.00
81628;BME280;71036;51.102;6.514;2024-01-30T03:46:52;101931.56;;;7.51;100.00
81628;BME280;71036;51.102;6.514;2024-01-30T03:49:17;101919.25;;;7.47;100.00
81628;BME280;71036;51.102;6.514;2024-01-30T03:51:42;101930.16;;;7.42;100.00
81628;BME280;71036;51.102;6.514;2024-01-30T03:54:08;101929.44;;;7.39;100.00
81628;BME280;71036;51.102;6.514;2024-01-30T03:56:33;101928.16;;;7.27;100.00
81628;BME280;71036;51.102;6.514;2024-01-30T03:58:58;101931.97;;;7.21;100.00
81628;BME280;71036;51.102;6.514;2024-01-30T04:01:25;101931.34;;;7.15;100.00
81628;BME280;71036;51.102;6.514;2024-01-30T04:03:51;101922.41;;;7.16;100.00
81628;BME280;71036;51.102;6.514;2024-01-30T04:06:16;101918.91;;;7.14;100.00
81628;BME280;71036;51.102;6.514;2024-01-30T04:08:41;101911.00;;;7.11;100.00
81628;BME280;71036;51.102;6.514;2024-01-30T04:11:06;101917.22;;;7.11;100.00
81628;BME280;71036;51.102;6.514;2024-01-30T04:13:33;101910.34;;;7.06;100.00
81628;BME280;71036;51.102;6.514;2024-01-30T04:15:59;101924.63;;;7.05;100.00
81628;BME280;71036;51.102;6.514;2024-01-30T04:18:28;101917.44;;;7.07;100.00
81628;BME280;71036;51.102;6.514;2024-01-30T04:20:54;101924.25;;;7.14;100.00
81628;BME280;71036;51.102;6.514;2024-01-30T04:23:19;101921.19;;;7.23;100.00
81628;BME280;71036;51.102;6.514;2024-01-30T04:25:45;101920.91;;;7.29;100.00
81628;BME280;71036;51.102;6.514;2024-01-30T04:28:10;101918.84;;;7.36;100.00
81628;BME280;71036;51.102;6.514;2024-01-30T04:30:38;101908.56;;;7.26;100.00
81628;BME280;71036;51.102;6.514;2024-01-30T04:33:04;101912.03;;;7.28;100.00
81628;BME280;71036;51.102;6.514;2024-01-30T04:35:29;101916.09;;;7.37;100.00
81628;BME280;71036;51.102;6.514;2024-01-30T04:37:55;101909.06;;;7.34;100.00
81628;BME280;71036;51.102;6.514;2024-01-30T04:40:21;101913.63;;;7.32;100.00
81628;BME280;71036;51.102;6.514;2024-01-30T04:42:46;101908.16;;;7.36;100.00
81628;BME280;71036;51.102;6.514;2024-01-30T04:45:12;101903.59;;;7.38;100.00
81628;BME280;71036;51.102;6.514;2024-01-30T04:47:37;101911.22;;;7.47;100.00
81628;BME280;71036;51.102;6.514;2024-01-30T04:50:02;101904.81;;;7.51;100.00
81628;BME280;71036;51.102;6.514;2024-01-30T04:52:29;101900.19;;;7.54;100.00
81628;BME280;71036;51.102;6.514;2024-01-30T04:54:55;101909.06;;;7.55;100.00
81628;BME280;71036;51.102;6.514;2024-01-30T04:57:20;101904.84;;;7.49;100.00
81628;BME280;71036;51.102;6.514;2024-01-30T04:59:45;101905.22;;;7.60;100.00
81628;BME280;71036;51.102;6.514;2024-01-30T05:02:10;101907.25;;;7.55;100.00
81628;BME280;71036;51.102;6.514;2024-01-30T05:04:36;101910.16;;;7.51;100.00
81628;BME280;71036;51.102;6.514;2024-01-30T05:07:01;101900.31;;;7.51;100.00
81628;BME280;71036;51.102;6.514;2024-01-30T05:09:26;101900.31;;;7.51;100.00
81628;BME280;71036;51.102;6.514;2024-01-30T05:11:52;101894.69;;;7.37;100.00
81628;BME280;71036;51.102;6.514;2024-01-30T05:14:17;101892.56;;;7.45;100.00
81628;BME280;71036;51.102;6.514;2024-01-30T05:16:43;101888.78;;;7.49;100.00
81628;BME280;71036;51.102;6.514;2024-01-30T05:19:11;101895.03;;;7.50;100.00
81628;BME280;71036;51.102;6.514;2024-01-30T05:21:37;101899.63;;;7.46;100.00
81628;BME280;71036;51.102;6.514;2024-01-30T05:24:02;101895.75;;;7.53;100.00
81628;BME280;71036;51.102;6.514;2024-01-30T05:26:27;101896.13;;;7.64;100.00
81628;BME280;71036;51.102;6.514;2024-01-30T05:28:53;101890.19;;;7.58;100.00
81628;BME280;71036;51.102;6.514;2024-01-30T05:31:18;101884.97;;;7.55;100.00
81628;BME280;71036;51.102;6.514;2024-01-30T05:33:43;101882.13;;;7.39;100.00
81628;BME280;71036;51.102;6.514;2024-01-30T05:36:11;101885.59;;;7.41;100.00
81628;BME280;71036;51.102;6.514;2024-01-30T05:38:37;101876.91;;;7.36;100.00
81628;BME280;71036;51.102;6.514;2024-01-30T05:41:02;101883.13;;;7.37;100.00
81628;BME280;71036;51.102;6.514;2024-01-30T05:43:27;101881.44;;;7.34;100.00
81628;BME280;71036;51.102;6.514;2024-01-30T05:45:53;101884.13;;;7.34;100.00
81628;BME280;71036;51.102;6.514;2024-01-30T05:48:18;101878.31;;;7.24;100.00
81628;BME280;71036;51.102;6.514;2024-01-30T05:50:43;101884.56;;;7.25;100.00
81628;BME280;71036;51.102;6.514;2024-01-30T05:53:08;101887.41;;;7.20;100.00
81628;BME280;71036;51.102;6.514;2024-01-30T05:55:34;101880.66;;;7.32;100.00
81628;BME280;71036;51.102;6.514;2024-01-30T05:57:59;101885.88;;;7.35;100.00
81628;BME280;71036;51.102;6.514;2024-01-30T06:00:24;101875.75;;;7.42;100.00
81628;BME280;71036;51.102;6.514;2024-01-30T06:02:49;101872.06;;;7.44;100.00
81628;BME280;71036;51.102;6.514;2024-01-30T06:05:15;101870.41;;;7.42;100.00
81628;BME280;71036;51.102;6.514;2024-01-30T06:07:40;101873.47;;;7.53;100.00
81628;BME280;71036;51.102;6.514;2024-01-30T06:10:06;101871.00;;;7.48;100.00
81628;BME280;71036;51.102;6.514;2024-01-30T06:12:32;101872.03;;;7.64;100.00
81628;BME280;71036;51.102;6.514;2024-01-30T06:14:57;101881.97;;;7.62;100.00
81628;BME280;71036;51.102;6.514;2024-01-30T06:17:23;101870.88;;;7.70;100.00
81628;BME280;71036;51.102;6.514;2024-01-30T06:19:48;101862.06;;;7.68;100.00
81628;BME280;71036;51.102;6.514;2024-01-30T06:22:13;101876.97;;;7.73;100.00
81628;BME280;71036;51.102;6.514;2024-01-30T06:24:39;101871.63;;;7.73;100.00
81628;BME280;71036;51.102;6.514;2024-01-30T06:27:04;101867.19;;;7.72;100.00
81628;BME280;71036;51.102;6.514;2024-01-30T06:29:29;101867.06;;;7.75;100.00
81628;BME280;71036;51.102;6.514;2024-01-30T06:31:54;101874.94;;;7.78;100.00
81628;BME280;71036;51.102;6.514;2024-01-30T06:34:20;101876.84;;;7.76;100.00
81628;BME280;71036;51.102;6.514;2024-01-30T06:36:45;101879.50;;;7.76;100.00
81628;BME280;71036;51.102;6.514;2024-01-30T06:39:10;101878.13;;;7.68;100.00
81628;BME280;71036;51.102;6.514;2024-01-30T06:41:35;101874.94;;;7.60;100.00
81628;BME280;71036;51.102;6.514;2024-01-30T06:44:04;101885.06;;;7.53;100.00
81628;BME280;71036;51.102;6.514;2024-01-30T06:46:31;101885.31;;;7.47;100.00
81628;BME280;71036;51.102;6.514;2024-01-30T06:48:57;101883.97;;;7.37;100.00
81628;BME280;71036;51.102;6.514;2024-01-30T06:51:22;101886.38;;;7.43;100.00
81628;BME280;71036;51.102;6.514;2024-01-30T06:53:48;101882.69;;;7.46;100.00
81628;BME280;71036;51.102;6.514;2024-01-30T06:56:13;101878.97;;;7.50;100.00
81628;BME280;71036;51.102;6.514;2024-01-30T06:58:39;101878.97;;;7.50;100.00
81628;BME280;71036;51.102;6.514;2024-01-30T07:01:04;101889.41;;;7.56;100.00
81628;BME280;71036;51.102;6.514;2024-01-30T07:03:29;101881.09;;;7.62;100.00
81628;BME280;71036;51.102;6.514;2024-01-30T07:05:55;101890.88;;;7.63;100.00
81628;BME280;71036;51.102;6.514;2024-01-30T07:08:20;101887.09;;;7.67;100.00
81628;BME280;71036;51.102;6.514;2024-01-30T07:10:46;101895.72;;;7.73;100.00
81628;BME280;71036;51.102;6.514;2024-01-30T07:13:11;101892.75;;;7.79;100.00
81628;BME280;71036;51.102;6.514;2024-01-30T07:15:37;101889.84;;;7.84;100.00
81628;BME280;71036;51.102;6.514;2024-01-30T07:18:03;101893.91;;;7.93;100.00
81628;BME280;71036;51.102;6.514;2024-01-30T07:20:29;101894.00;;;7.91;100.00
81628;BME280;71036;51.102;6.514;2024-01-30T07:22:56;101890.09;;;7.98;100.00
81628;BME280;71036;51.102;6.514;2024-01-30T07:25:22;101895.38;;;8.00;100.00
81628;BME280;71036;51.102;6.514;2024-01-30T07:27:51;101886.41;;;8.01;100.00
81628;BME280;71036;51.102;6.514;2024-01-30T07:30:17;101898.84;;;8.02;100.00
81628;BME280;71036;51.102;6.514;2024-01-30T07:32:43;101912.25;;;8.02;100.00
81628;BME280;71036;51.102;6.514;2024-01-30T07:35:08;101920.13;;;8.05;100.00
81628;BME280;71036;51.102;6.514;2024-01-30T07:37:34;101922.16;;;8.00;100.00
81628;BME280;71036;51.102;6.514;2024-01-30T07:39:59;101926.06;;;7.93;100.00
81628;BME280;71036;51.102;6.514;2024-01-30T07:42:24;101914.78;;;7.86;100.00
81628;BME280;71036;51.102;6.514;2024-01-30T07:44:50;101914.56;;;7.90;100.00
81628;BME280;71036;51.102;6.514;2024-01-30T07:47:16;101922.44;;;7.94;100.00
81628;BME280;71036;51.102;6.514;2024-01-30T07:49:41;101915.06;;;7.99;100.00
81628;BME280;71036;51.102;6.514;2024-01-30T07:52:06;101921.84;;;8.07;100.00
81628;BME280;71036;51.102;6.514;2024-01-30T07:54:32;101926.88;;;8.13;100.00
81628;BME280;71036;51.102;6.514;2024-01-30T07:56:59;101915.66;;;8.05;100.00
81628;BME280;71036;51.102;6.514;2024-01-30T07:59:25;101927.53;;;8.18;100.00
81628;BME280;71036;51.102;6.514;2024-01-30T08:01:50;101924.78;;;8.20;100.00
81628;BME280;71036;51.102;6.514;2024-01-30T08:04:16;101919.94;;;8.28;100.00
81628;BME280;71036;51.102;6.514;2024-01-30T08:06:42;101925.75;;;8.37;100.00
81628;BME280;71036;51.102;6.514;2024-01-30T08:09:07;101932.50;;;8.27;100.00
81628;BME280;71036;51.102;6.514;2024-01-30T08:11:33;101929.94;;;8.24;100.00
81628;BME280;71036;51.102;6.514;2024-01-30T08:13:58;101931.09;;;8.37;100.00
81628;BME280;71036;51.102;6.514;2024-01-30T08:16:23;101939.78;;;8.42;100.00
81628;BME280;71036;51.102;6.514;2024-01-30T08:18:49;101947.06;;;8.40;100.00
81628;BME280;71036;51.102;6.514;2024-01-30T08:21:14;101938.94;;;8.42;100.00
81628;BME280;71036;51.102;6.514;2024-01-30T08:23:39;101934.28;;;8.45;100.00
81628;BME280;71036;51.102;6.514;2024-01-30T08:26:05;101949.00;;;8.56;100.00
81628;BME280;71036;51.102;6.514;2024-01-30T08:28:30;101943.78;;;8.71;100.00
81628;BME280;71036;51.102;6.514;2024-01-30T08:30:56;101950.84;;;8.72;100.00
81628;BME280;71036;51.102;6.514;2024-01-30T08:33:21;101954.41;;;8.73;100.00
81628;BME280;71036;51.102;6.514;2024-01-30T08:35:46;101948.91;;;8.76;100.00
81628;BME280;71036;51.102;6.514;2024-01-30T08:38:11;101957.03;;;8.74;100.00
81628;BME280;71036;51.102;6.514;2024-01-30T08:40:37;101959.78;;;8.73;100.00
81628;BME280;71036;51.102;6.514;2024-01-30T08:43:03;101963.63;;;8.67;100.00
81628;BME280;71036;51.102;6.514;2024-01-30T08:45:29;101967.81;;;8.73;100.00
81628;BME280;71036;51.102;6.514;2024-01-30T08:47:54;101982.53;;;8.83;100.00
81628;BME280;71036;51.102;6.514;2024-01-30T08:50:19;101972.59;;;8.85;100.00
81628;BME280;71036;51.102;6.514;2024-01-30T08:52:45;101968.31;;;8.81;100.00
81628;BME280;71036;51.102;6.514;2024-01-30T08:55:10;101971.84;;;8.81;100.00
81628;BME280;71036;51.102;6.514;2024-01-30T08:57:35;101968.41;;;8.79;100.00
81628;BME280;71036;51.102;6.514;2024-01-30T09:00:01;101976.28;;;8.82;100.00
81628;BME280;71036;51.102;6.514;2024-01-30T09:02:29;101968.09;;;8.85;100.00
81628;BME280;71036;51.102;6.514;2024-01-30T09:04:54;101972.44;;;8.88;100.00
81628;BME280;71036;51.102;6.514;2024-01-30T09:07:20;101979.31;;;8.93;100.00
81628;BME280;71036;51.102;6.514;2024-01-30T09:09:45;101988.81;;;9.00;100.00
81628;BME280;71036;51.102;6.514;2024-01-30T09:12:10;101986.44;;;9.12;100.00
81628;BME280;71036;51.102;6.514;2024-01-30T09:14:37;101986.00;;;9.21;100.00
81628;BME280;71036;51.102;6.514;2024-01-30T09:17:03;101992.09;;;9.24;100.00
81628;BME280;71036;51.102;6.514;2024-01-30T09:19:28;101998.28;;;9.25;100.00
81628;BME280;71036;51.102;6.514;2024-01-30T09:21:53;101997.50;;;9.23;100.00
81628;BME280;71036;51.102;6.514;2024-01-30T09:24:19;102000.97;;;9.25;100.00
81628;BME280;71036;51.102;6.514;2024-01-30T09:26:44;101996.72;;;9.21;100.00
81628;BME280;71036;51.102;6.514;2024-01-30T09:29:09;102000.94;;;9.43;100.00
81628;BME280;71036;51.102;6.514;2024-01-30T09:31:35;101997.69;;;9.54;100.00
81628;BME280;71036;51.102;6.514;2024-01-30T09:34:00;102002.03;;;9.39;100.00
81628;BME280;71036;51.102;6.514;2024-01-30T09:36:25;102000.75;;;9.29;100.00
81628;BME280;71036;51.102;6.514;2024-01-30T09:38:51;102002.50;;;9.30;100.00
81628;BME280;71036;51.102;6.514;2024-01-30T09:41:18;102011.03;;;9.38;100.00
81628;BME280;71036;51.102;6.514;2024-01-30T09:43:47;102006.84;;;9.33;100.00
81628;BME280;71036;51.102;6.514;2024-01-30T09:46:17;102013.94;;;9.34;100.00
81628;BME280;71036;51.102;6.514;2024-01-30T09:48:46;102012.22;;;9.33;100.00
81628;BME280;71036;51.102;6.514;2024-01-30T09:51:11;102011.19;;;9.35;100.00
81628;BME280;71036;51.102;6.514;2024-01-30T09:53:38;102013.41;;;9.44;100.00
81628;BME280;71036;51.102;6.514;2024-01-30T09:56:05;102004.59;;;9.60;100.00
81628;BME280;71036;51.102;6.514;2024-01-30T09:58:30;102012.47;;;9.63;100.00
81628;BME280;71036;51.102;6.514;2024-01-30T10:00:55;102007.72;;;9.68;100.00
81628;BME280;71036;51.102;6.514;2024-01-30T10:03:21;102010.41;;;9.68;100.00
81628;BME280;71036;51.102;6.514;2024-01-30T10:05:51;102019.50;;;9.82;100.00
81628;BME280;71036;51.102;6.514;2024-01-30T10:08:19;102012.69;;;9.75;100.00
81628;BME280;71036;51.102;6.514;2024-01-30T10:10:46;102012.69;;;9.75;100.00
81628;BME280;71036;51.102;6.514;2024-01-30T10:13:11;102008.19;;;9.76;100.00
81628;BME280;71036;51.102;6.514;2024-01-30T10:15:37;102006.94;;;9.83;100.00
81628;BME280;71036;51.102;6.514;2024-01-30T10:18:06;102002.16;;;9.88;100.00
81628;BME280;71036;51.102;6.514;2024-01-30T10:20:32;102000.97;;;9.93;100.00
81628;BME280;71036;51.102;6.514;2024-01-30T10:22:58;102005.00;;;10.02;100.00
81628;BME280;71036;51.102;6.514;2024-01-30T10:25:25;102008.06;;;10.11;100.00
81628;BME280;71036;51.102;6.514;2024-01-30T10:27:54;102007.50;;;10.22;100.00
81628;BME280;71036;51.102;6.514;2024-01-30T10:30:24;102004.19;;;10.50;99.76
81628;BME280;71036;51.102;6.514;2024-01-30T10:32:50;102006.69;;;10.53;98.92
81628;BME280;71036;51.102;6.514;2024-01-30T10:35:16;101996.13;;;10.65;98.43
81628;BME280;71036;51.102;6.514;2024-01-30T10:37:47;101993.06;;;10.72;98.26
81628;BME280;71036;51.102;6.514;2024-01-30T10:40:13;101989.78;;;10.66;98.70
81628;BME280;71036;51.102;6.514;2024-01-30T10:42:43;101997.94;;;10.65;99.01
81628;BME280;71036;51.102;6.514;2024-01-30T10:45:10;102001.41;;;10.67;99.46
81628;BME280;71036;51.102;6.514;2024-01-30T10:47:49;102004.09;;;10.67;99.83
81628;BME280;71036;51.102;6.514;2024-01-30T10:50:15;102005.69;;;10.71;100.00
81628;BME280;71036;51.102;6.514;2024-01-30T10:52:41;102006.28;;;10.76;100.00
81628;BME280;71036;51.102;6.514;2024-01-30T10:55:09;101997.16;;;10.79;100.00
81628;BME280;71036;51.102;6.514;2024-01-30T10:57:35;102004.53;;;10.91;100.00
81628;BME280;71036;51.102;6.514;2024-01-30T11:00:03;102004.72;;;11.03;99.98
81628;BME280;71036;51.102;6.514;2024-01-30T11:02:39;101998.00;;;11.10;99.93
81628;BME280;71036;51.102;6.514;2024-01-30T11:05:05;102004.66;;;11.19;100.00
81628;BME280;71036;51.102;6.514;2024-01-30T11:07:30;102003.25;;;11.27;100.00
81628;BME280;71036;51.102;6.514;2024-01-30T11:12:27;102006.97;;;11.41;100.00
81628;BME280;71036;51.102;6.514;2024-01-30T11:15:37;102000.53;;;11.43;100.00
81628;BME280;71036;51.102;6.514;2024-01-30T11:17:53;102009.94;;;11.36;100.00
81628;BME280;71036;51.102;6.514;2024-01-30T11:20:25;102016.28;;;11.35;100.00
81628;BME280;71036;51.102;6.514;2024-01-30T11:22:52;102019.25;;;11.31;100.00
81628;BME280;71036;51.102;6.514;2024-01-30T11:25:20;102011.16;;;11.31;100.00
81628;BME280;71036;51.102;6.514;2024-01-30T11:27:46;102015.50;;;11.33;100.00
81628;BME280;71036;51.102;6.514;2024-01-30T11:30:28;102020.81;;;11.35;100.00
81628;BME280;71036;51.102;6.514;2024-01-30T11:33:13;102002.25;;;11.30;100.00
81628;BME280;71036;51.102;6.514;2024-01-30T11:35:43;102012.91;;;11.32;100.00
81628;BME280;71036;51.102;6.514;2024-01-30T11:38:11;102008.22;;;11.35;100.00
81628;BME280;71036;51.102;6.514;2024-01-30T11:40:40;102008.72;;;11.42;100.00
81628;BME280;71036;51.102;6.514;2024-01-30T11:43:07;102012.56;;;11.38;100.00
81628;BME280;71036;51.102;6.514;2024-01-30T11:45:33;102006.97;;;11.41;100.00
81628;BME280;71036;51.102;6.514;2024-01-30T11:48:00;102008.03;;;11.38;100.00
81628;BME280;71036;51.102;6.514;2024-01-30T11:50:26;102016.63;;;11.45;100.00
81628;BME280;71036;51.102;6.514;2024-01-30T11:52:52;102014.69;;;11.47;100.00
81628;BME280;71036;51.102;6.514;2024-01-30T11:55:19;101998.53;;;11.47;100.00
81628;BME280;71036;51.102;6.514;2024-01-30T11:57:44;102008.34;;;11.48;100.00
81628;BME280;71036;51.102;6.514;2024-01-30T12:00:17;102005.63;;;11.48;100.00
81628;BME280;71036;51.102;6.514;2024-01-30T12:02:54;102006.81;;;11.44;100.00
81628;BME280;71036;51.102;6.514;2024-01-30T12:05:23;102001.41;;;11.44;100.00
81628;BME280;71036;51.102;6.514;2024-01-30T12:07:49;102014.19;;;11.40;100.00
81628;BME280;71036;51.102;6.514;2024-01-30T12:10:15;102002.03;;;11.33;100.00
81628;BME280;71036;51.102;6.514;2024-01-30T12:12:45;102006.41;;;11.36;100.00
81628;BME280;71036;51.102;6.514;2024-01-30T12:15:12;102005.41;;;11.37;100.00
81628;BME280;71036;51.102;6.514;2024-01-30T12:17:37;102006.97;;;11.41;100.00
81628;BME280;71036;51.102;6.514;2024-01-30T12:22:40;101992.38;;;11.45;100.00
81628;BME280;71036;51.102;6.514;2024-01-30T12:25:13;101989.69;;;11.45;100.00
81628;BME280;71036;51.102;6.514;2024-01-30T12:27:39;101999.41;;;11.47;100.00
81628;BME280;71036;51.102;6.514;2024-01-30T12:30:11;102003.81;;;11.48;100.00
81628;BME280;71036;51.102;6.514;2024-01-30T12:32:39;102000.66;;;11.42;100.00
81628;BME280;71036;51.102;6.514;2024-01-30T12:35:10;101997.94;;;11.42;100.00
81628;BME280;71036;51.102;6.514;2024-01-30T12:37:35;101997.84;;;11.43;100.00
81628;BME280;71036;51.102;6.514;2024-01-30T12:40:01;102001.50;;;11.42;100.00
81628;BME280;71036;51.102;6.514;2024-01-30T12:42:27;102001.84;;;11.36;100.00
81628;BME280;71036;51.102;6.514;2024-01-30T12:44:52;102010.81;;;11.37;100.00
81628;BME280;71036;51.102;6.514;2024-01-30T12:47:18;102009.84;;;11.38;100.00
81628;BME280;71036;51.102;6.514;2024-01-30T12:49:43;101999.34;;;11.33;100.00